createdAt,value
2022-12-18T00:01:06.783Z,23.70
2022-12-18T00:02:39.655Z,23.08
2022-12-18T00:04:20.364Z,24.55
2022-12-18T00:05:54.199Z,23.30
2022-12-18T00:07:26.894Z,23.77
2022-12-18T00:09:01.189Z,24.65
2022-12-18T00:10:33.961Z,24.63
2022-12-18T00:13:50.168Z,27.90
2022-12-18T00:15:22.962Z,24.92
2022-12-18T00:16:55.691Z,25.08
2022-12-18T00:18:28.428Z,23.30
2022-12-18T00:20:01.145Z,23.50
2022-12-18T00:21:34.690Z,24.35
2022-12-18T00:23:10.449Z,28.98
2022-12-18T00:24:43.205Z,25.77
2022-12-18T00:26:16.559Z,24.63
2022-12-18T00:27:49.322Z,25.95
2022-12-18T00:29:23.350Z,24.23
2022-12-18T00:31:02.456Z,25.77
2022-12-18T00:32:35.199Z,25.42
2022-12-18T00:34:07.585Z,24.05
2022-12-18T00:35:40.437Z,26.10
2022-12-18T00:37:18.271Z,25.80
2022-12-18T00:38:53.143Z,23.83
2022-12-18T00:40:25.942Z,26.38
2022-12-18T00:42:16.083Z,27.38
2022-12-18T00:43:47.866Z,23.65
2022-12-18T00:45:21.930Z,23.85
2022-12-18T00:46:54.651Z,27.60
2022-12-18T00:48:27.432Z,24.75
2022-12-18T00:50:00.138Z,25.27
2022-12-18T00:51:31.903Z,27.08
2022-12-18T00:53:04.754Z,25.63
2022-12-18T00:54:37.461Z,26.25
2022-12-18T00:56:09.517Z,25.88
2022-12-18T00:57:42.555Z,24.63
2022-12-18T00:59:15.283Z,24.75
2022-12-18T01:00:48.420Z,25.33
2022-12-18T01:02:21.309Z,26.60
2022-12-18T01:03:54.138Z,26.45
2022-12-18T01:05:27.226Z,26.70
2022-12-18T01:07:00.006Z,27.42
2022-12-18T01:08:31.767Z,26.95
2022-12-18T01:10:05.271Z,26.92
2022-12-18T01:11:37.972Z,26.77
2022-12-18T01:13:10.009Z,27.33
2022-12-18T01:14:42.903Z,26.45
2022-12-18T01:16:18.802Z,26.98
2022-12-18T01:17:54.031Z,27.00
2022-12-18T01:19:26.094Z,26.63
2022-12-18T01:20:58.819Z,27.20
2022-12-18T01:22:31.605Z,26.45
2022-12-18T01:24:04.535Z,25.58
2022-12-18T01:25:38.503Z,26.10
2022-12-18T01:27:11.246Z,24.60
2022-12-18T01:28:45.612Z,24.48
2022-12-18T01:30:18.486Z,25.65
2022-12-18T01:31:51.613Z,24.67
2022-12-18T01:33:24.638Z,24.17
2022-12-18T01:34:57.981Z,23.92
2022-12-18T01:36:33.351Z,24.10
2022-12-18T01:38:06.046Z,23.25
2022-12-18T01:39:39.049Z,23.77
2022-12-18T01:41:11.930Z,23.58
2022-12-18T01:42:44.182Z,24.08
2022-12-18T01:44:54.492Z,23.95
2022-12-18T01:46:28.838Z,22.23
2022-12-18T01:48:05.216Z,22.52
2022-12-18T01:49:37.020Z,21.75
2022-12-18T01:51:12.094Z,22.17
2022-12-18T01:52:48.442Z,22.15
2022-12-18T01:54:21.182Z,22.08
2022-12-18T01:55:55.870Z,22.67
2022-12-18T01:57:30.022Z,22.23
2022-12-18T01:59:05.071Z,23.40
2022-12-18T02:00:37.883Z,22.70
2022-12-18T02:02:10.984Z,22.50
2022-12-18T02:03:46.259Z,22.63
2022-12-18T02:05:25.433Z,22.17
2022-12-18T02:07:05.465Z,22.48
2022-12-18T02:08:44.446Z,22.10
2022-12-18T02:10:21.189Z,21.45
2022-12-18T02:12:00.826Z,22.15
2022-12-18T02:13:42.729Z,22.63
2022-12-18T02:15:21.043Z,22.88
2022-12-18T02:16:59.186Z,22.23
2022-12-18T02:18:38.718Z,22.58
2022-12-18T02:20:20.077Z,22.02
2022-12-18T02:22:08.735Z,22.00
2022-12-18T02:23:53.674Z,23.80
2022-12-18T02:25:41.370Z,23.88
2022-12-18T02:27:15.828Z,22.48
2022-12-18T02:28:53.187Z,21.35
2022-12-18T02:30:25.585Z,21.67
2022-12-18T02:32:00.909Z,21.55
2022-12-18T02:33:35.972Z,21.05
2022-12-18T02:35:15.222Z,23.23
2022-12-18T02:36:48.462Z,23.40
2022-12-18T02:38:21.699Z,21.55
2022-12-18T02:39:56.635Z,22.27
2022-12-18T02:41:30.587Z,23.02
2022-12-18T02:43:12.117Z,22.92
2022-12-18T02:44:45.314Z,22.20
2022-12-18T02:46:36.329Z,22.35
2022-12-18T02:48:09.269Z,21.80
2022-12-18T02:49:51.741Z,21.02
2022-12-18T02:51:34.711Z,22.00
2022-12-18T02:53:15.859Z,22.48
2022-12-18T02:55:01.035Z,22.95
2022-12-18T02:56:40.356Z,20.88
2022-12-18T02:58:19.362Z,20.73
2022-12-18T03:00:00.241Z,20.92
2022-12-18T03:01:38.640Z,21.38
2022-12-18T03:03:18.061Z,21.70
2022-12-18T03:04:54.572Z,21.60
2022-12-18T03:06:32.215Z,21.83
2022-12-18T03:08:08.704Z,21.10
2022-12-18T03:09:44.599Z,20.35
2022-12-18T03:11:37.633Z,20.88
2022-12-18T03:13:12.899Z,20.05
2022-12-18T03:14:50.412Z,19.50
2022-12-18T03:16:26.941Z,20.20
2022-12-18T03:18:04.759Z,18.83
2022-12-18T03:19:40.069Z,19.38
2022-12-18T03:21:16.330Z,20.23
2022-12-18T03:22:52.235Z,19.35
2022-12-18T03:24:26.515Z,19.55
2022-12-18T03:26:07.615Z,19.42
2022-12-18T03:27:47.838Z,19.23
2022-12-18T03:29:23.680Z,19.33
2022-12-18T03:31:00.376Z,18.67
2022-12-18T03:32:38.336Z,18.92
2022-12-18T03:34:16.911Z,19.40
2022-12-18T03:35:48.966Z,19.02
2022-12-18T03:37:21.751Z,19.25
2022-12-18T03:38:54.635Z,19.00
2022-12-18T03:40:33.138Z,19.60
2022-12-18T03:42:11.061Z,18.38
2022-12-18T03:43:50.950Z,17.77
2022-12-18T03:45:28.408Z,18.02
2022-12-18T03:47:09.705Z,18.70
2022-12-18T03:48:51.877Z,18.30
2022-12-18T03:50:32.483Z,18.63
2022-12-18T03:52:09.408Z,19.52
2022-12-18T03:53:50.002Z,18.65
2022-12-18T03:55:23.821Z,19.77
2022-12-18T03:57:01.470Z,18.50
2022-12-18T03:58:35.103Z,18.73
2022-12-18T04:00:11.709Z,19.00
2022-12-18T04:01:47.989Z,19.35
2022-12-18T04:03:26.414Z,18.73
2022-12-18T04:05:02.498Z,19.35
2022-12-18T04:06:36.483Z,19.60
2022-12-18T04:08:09.455Z,18.92
2022-12-18T04:09:44.697Z,18.58
2022-12-18T04:11:16.620Z,18.85
2022-12-18T04:12:49.554Z,18.65
2022-12-18T04:14:22.397Z,19.48
2022-12-18T04:15:55.352Z,19.20
2022-12-18T04:17:28.101Z,19.48
2022-12-18T04:19:02.177Z,19.58
2022-12-18T04:20:33.947Z,18.52
2022-12-18T04:22:06.747Z,19.77
2022-12-18T04:23:38.736Z,19.50
2022-12-18T04:25:11.755Z,18.60
2022-12-18T04:26:44.479Z,18.80
2022-12-18T04:28:17.263Z,18.63
2022-12-18T04:29:50.019Z,18.10
2022-12-18T04:31:23.166Z,19.55
2022-12-18T04:32:55.890Z,18.75
2022-12-18T04:34:30.003Z,19.45
2022-12-18T04:36:04.033Z,19.88
2022-12-18T04:37:35.814Z,19.42
2022-12-18T04:39:08.522Z,20.67
2022-12-18T04:40:41.687Z,20.40
2022-12-18T04:42:14.615Z,20.17
2022-12-18T04:43:47.376Z,20.30
2022-12-18T04:45:20.097Z,20.10
2022-12-18T04:46:51.919Z,20.63
2022-12-18T04:48:25.452Z,19.40
2022-12-18T04:49:59.489Z,20.70
2022-12-18T04:51:32.207Z,21.15
2022-12-18T04:53:05.148Z,20.80
2022-12-18T04:54:36.910Z,20.15
2022-12-18T04:56:11.907Z,20.55
2022-12-18T04:57:44.697Z,19.42
2022-12-18T04:59:17.503Z,19.17
2022-12-18T05:00:50.262Z,19.75
2022-12-18T05:02:23.051Z,20.48
2022-12-18T05:03:55.897Z,18.55
2022-12-18T05:05:30.040Z,19.77
2022-12-18T05:07:02.763Z,19.27
2022-12-18T05:08:35.727Z,19.50
2022-12-18T05:10:09.226Z,18.60
2022-12-18T05:11:42.173Z,19.95
2022-12-18T05:13:14.901Z,19.50
2022-12-18T05:14:46.627Z,19.65
2022-12-18T05:16:19.460Z,19.88
2022-12-18T05:17:51.384Z,19.10
2022-12-18T05:19:24.109Z,18.52
2022-12-18T05:20:58.677Z,18.95
2022-12-18T05:22:30.447Z,19.42
2022-12-18T05:24:03.175Z,18.02
2022-12-18T05:25:35.912Z,19.40
2022-12-18T05:27:08.663Z,19.80
2022-12-18T05:28:41.376Z,18.30
2022-12-18T05:30:14.036Z,19.25
2022-12-18T05:31:46.768Z,19.25
2022-12-18T05:33:19.891Z,19.25
2022-12-18T05:34:52.621Z,19.50
2022-12-18T05:36:26.754Z,20.17
2022-12-18T05:37:59.454Z,20.48
2022-12-18T05:39:31.566Z,21.48
2022-12-18T05:41:04.787Z,20.38
2022-12-18T05:42:37.512Z,20.42
2022-12-18T05:44:10.226Z,21.60
2022-12-18T05:45:42.584Z,21.45
2022-12-18T05:47:15.362Z,21.58
2022-12-18T05:48:49.097Z,21.52
2022-12-18T05:50:20.870Z,20.90
2022-12-18T05:51:54.879Z,21.80
2022-12-18T05:53:27.588Z,20.30
2022-12-18T05:55:00.862Z,22.38
2022-12-18T05:56:32.617Z,20.67
2022-12-18T05:58:06.827Z,21.58
2022-12-18T05:59:39.712Z,21.92
2022-12-18T06:01:15.044Z,21.40
2022-12-18T06:02:48.970Z,22.85
2022-12-18T06:04:21.776Z,21.67
2022-12-18T06:05:54.488Z,22.98
2022-12-18T06:07:27.588Z,21.98
2022-12-18T06:09:02.233Z,22.73
2022-12-18T06:10:34.463Z,22.65
2022-12-18T06:12:07.984Z,22.00
2022-12-18T06:13:41.228Z,22.23
2022-12-18T06:15:14.236Z,21.65
2022-12-18T06:16:47.008Z,21.77
2022-12-18T06:18:19.723Z,20.60
2022-12-18T06:19:52.574Z,20.58
2022-12-18T06:21:25.288Z,21.25
2022-12-18T06:22:59.351Z,20.33
2022-12-18T06:24:32.204Z,20.35
2022-12-18T06:26:08.606Z,22.08
2022-12-18T06:27:40.493Z,20.25
2022-12-18T06:29:14.970Z,21.15
2022-12-18T06:30:49.030Z,21.98
2022-12-18T06:32:21.781Z,21.00
2022-12-18T06:33:54.518Z,20.73
2022-12-18T06:35:27.233Z,19.85
2022-12-18T06:37:00.427Z,21.00
2022-12-18T06:38:36.087Z,20.35
2022-12-18T06:40:09.996Z,20.10
2022-12-18T06:41:42.708Z,21.52
2022-12-18T06:43:15.457Z,21.70
2022-12-18T06:44:48.216Z,21.88
2022-12-18T06:46:21.042Z,21.10
2022-12-18T06:47:53.802Z,21.30
2022-12-18T06:49:30.453Z,19.92
2022-12-18T06:51:04.133Z,21.80
2022-12-18T06:52:37.669Z,20.23
2022-12-18T06:54:11.742Z,19.70
2022-12-18T06:55:45.016Z,21.13
2022-12-18T06:57:17.740Z,21.70
2022-12-18T06:58:49.486Z,20.98
2022-12-18T07:00:22.489Z,21.58
2022-12-18T07:01:55.471Z,21.27
2022-12-18T07:03:28.299Z,20.48
2022-12-18T07:05:04.800Z,20.52
2022-12-18T07:06:40.294Z,20.38
2022-12-18T07:08:12.998Z,20.55
2022-12-18T07:09:47.051Z,19.88
2022-12-18T07:11:20.503Z,21.83
2022-12-18T07:12:53.389Z,19.63
2022-12-18T07:14:26.123Z,21.67
2022-12-18T07:16:10.903Z,19.27
2022-12-18T07:17:47.874Z,24.15
2022-12-18T07:19:20.590Z,29.65
2022-12-18T07:20:52.379Z,30.25
2022-12-18T07:22:26.599Z,28.38
2022-12-18T07:23:59.319Z,24.60
2022-12-18T07:25:35.726Z,21.80
2022-12-18T07:27:08.478Z,20.80
2022-12-18T07:28:43.275Z,21.13
2022-12-18T07:30:16.015Z,21.30
2022-12-18T07:31:48.861Z,20.98
2022-12-18T07:33:21.731Z,22.02
2022-12-18T07:34:54.451Z,21.48
2022-12-18T07:36:27.601Z,22.13
2022-12-18T07:38:04.025Z,21.63
2022-12-18T07:39:36.797Z,22.33
2022-12-18T07:41:13.291Z,22.50
2022-12-18T07:42:46.032Z,20.73
2022-12-18T07:44:18.771Z,19.33
2022-12-18T07:45:51.688Z,20.75
2022-12-18T07:47:24.469Z,19.55
2022-12-18T07:48:57.171Z,19.73
2022-12-18T07:50:29.907Z,20.10
2022-12-18T07:52:02.696Z,19.60
2022-12-18T07:53:37.121Z,19.30
2022-12-18T07:55:10.544Z,19.58
2022-12-18T07:56:44.907Z,19.00
2022-12-18T07:58:17.651Z,18.45
2022-12-18T07:59:50.520Z,18.90
2022-12-18T08:01:23.536Z,21.98
2022-12-18T08:02:56.596Z,20.13
2022-12-18T08:04:29.586Z,18.88
2022-12-18T08:06:02.907Z,19.50
2022-12-18T08:07:35.636Z,32.67
2022-12-18T08:09:09.491Z,28.77
2022-12-18T08:10:42.199Z,23.92
2022-12-18T08:12:16.402Z,20.80
2022-12-18T08:13:49.179Z,22.38
2022-12-18T08:15:22.420Z,21.90
2022-12-18T08:16:55.188Z,22.48
2022-12-18T08:18:28.287Z,21.77
2022-12-18T08:20:01.060Z,22.67
2022-12-18T08:21:34.386Z,20.80
2022-12-18T08:23:07.108Z,19.35
2022-12-18T08:24:39.835Z,21.17
2022-12-18T08:26:13.406Z,21.00
2022-12-18T08:27:47.478Z,21.70
2022-12-18T08:29:21.774Z,22.77
2022-12-18T08:30:54.627Z,21.02
2022-12-18T08:32:29.002Z,23.83
2022-12-18T08:34:01.927Z,22.15
2022-12-18T08:35:42.462Z,23.52
2022-12-18T08:37:18.243Z,21.20
2022-12-18T08:38:51.029Z,21.33
2022-12-18T08:40:23.940Z,22.42
2022-12-18T08:42:14.436Z,22.88
2022-12-18T08:44:06.170Z,22.65
2022-12-18T08:45:39.039Z,23.60
2022-12-18T08:47:11.875Z,25.15
2022-12-18T08:48:44.729Z,26.48
2022-12-18T08:50:18.209Z,29.27
2022-12-18T08:51:55.722Z,27.55
2022-12-18T08:53:34.050Z,24.45
2022-12-18T08:55:09.960Z,23.38
2022-12-18T08:56:42.770Z,24.08
2022-12-18T08:58:15.507Z,23.95
2022-12-18T08:59:49.582Z,24.23
2022-12-18T09:01:22.943Z,24.20
2022-12-18T09:02:55.788Z,24.05
2022-12-18T09:04:28.648Z,25.00
2022-12-18T09:06:01.395Z,23.58
2022-12-18T09:07:34.120Z,24.95
2022-12-18T09:09:07.394Z,25.00
2022-12-18T09:10:44.143Z,24.65
2022-12-18T09:12:16.873Z,24.80
2022-12-18T09:13:49.666Z,25.63
2022-12-18T09:15:23.962Z,27.70
2022-12-18T09:16:56.812Z,26.92
2022-12-18T09:18:29.645Z,27.80
2022-12-18T09:20:02.388Z,27.35
2022-12-18T09:21:37.485Z,26.70
2022-12-18T09:23:11.144Z,26.23
2022-12-18T09:24:43.866Z,27.40
2022-12-18T09:26:16.783Z,25.58
2022-12-18T09:27:49.536Z,25.77
2022-12-18T09:29:22.478Z,27.23
2022-12-18T09:30:56.579Z,24.98
2022-12-18T09:32:29.357Z,25.17
2022-12-18T09:34:02.056Z,25.55
2022-12-18T09:35:37.680Z,25.08
2022-12-18T09:37:10.508Z,26.75
2022-12-18T09:38:43.533Z,26.20
2022-12-18T09:40:18.048Z,26.65
2022-12-18T09:41:55.187Z,26.90
2022-12-18T09:43:33.856Z,26.30
2022-12-18T09:45:07.445Z,25.92
2022-12-18T09:46:48.014Z,27.67
2022-12-18T09:48:25.519Z,26.65
2022-12-18T09:50:02.373Z,27.58
2022-12-18T09:51:39.175Z,26.02
2022-12-18T09:53:17.713Z,25.60
2022-12-18T09:54:55.473Z,26.55
2022-12-18T09:56:33.586Z,26.50
2022-12-18T09:58:13.906Z,26.55
2022-12-18T09:59:51.874Z,26.48
2022-12-18T10:01:26.348Z,26.65
2022-12-18T10:03:10.756Z,27.95
2022-12-18T10:04:43.936Z,28.67
2022-12-18T10:06:21.658Z,27.42
2022-12-18T10:08:02.861Z,28.17
2022-12-18T10:09:42.640Z,28.48
2022-12-18T10:11:30.874Z,25.50
2022-12-18T10:13:11.180Z,26.92
2022-12-18T10:14:53.165Z,26.70
2022-12-18T10:16:31.749Z,27.23
2022-12-18T10:18:22.102Z,29.05
2022-12-18T10:19:58.203Z,26.45
2022-12-18T10:21:35.625Z,26.95
2022-12-18T10:23:19.591Z,26.45
2022-12-18T10:24:57.555Z,28.63
2022-12-18T10:26:33.902Z,27.98
2022-12-18T10:28:13.160Z,26.80
2022-12-18T10:29:47.551Z,27.13
2022-12-18T10:31:24.682Z,25.65
2022-12-18T10:33:03.355Z,26.45
2022-12-18T10:34:37.423Z,26.60
2022-12-18T10:36:10.920Z,25.50
2022-12-18T10:38:03.007Z,26.15
2022-12-18T10:39:36.183Z,25.52
2022-12-18T10:41:27.664Z,25.70
2022-12-18T10:43:07.576Z,27.08
2022-12-18T10:44:40.299Z,27.20
2022-12-18T10:46:21.604Z,26.45
2022-12-18T10:47:54.779Z,25.63
2022-12-18T10:49:29.335Z,26.25
2022-12-18T10:51:13.140Z,25.98
2022-12-18T10:52:56.165Z,26.20
2022-12-18T10:54:32.202Z,25.83
2022-12-18T10:56:07.300Z,25.13
2022-12-18T10:57:42.431Z,25.65
2022-12-18T10:59:17.375Z,25.83
2022-12-18T11:01:08.812Z,27.02
2022-12-18T11:02:41.778Z,23.40
2022-12-18T11:04:19.211Z,24.73
2022-12-18T11:06:06.189Z,25.20
2022-12-18T11:07:50.894Z,23.35
2022-12-18T11:09:25.228Z,22.63
2022-12-18T11:10:58.066Z,25.25
2022-12-18T11:12:31.383Z,25.17
2022-12-18T11:14:05.769Z,23.88
2022-12-18T11:15:42.021Z,24.08
2022-12-18T11:17:26.296Z,23.55
2022-12-18T11:19:23.424Z,24.85
2022-12-18T11:20:59.385Z,24.98
2022-12-18T11:22:35.200Z,24.65
2022-12-18T11:24:22.654Z,24.17
2022-12-18T11:25:58.878Z,24.02
2022-12-18T11:27:31.875Z,24.92
2022-12-18T11:29:11.910Z,24.40
2022-12-18T11:30:44.666Z,24.55
2022-12-18T11:32:37.149Z,25.17
2022-12-18T11:34:28.583Z,25.83
2022-12-18T11:36:05.577Z,24.85
2022-12-18T11:37:42.106Z,26.38
2022-12-18T11:39:19.555Z,25.55
2022-12-18T11:40:58.281Z,23.83
2022-12-18T11:42:38.492Z,24.60
2022-12-18T11:44:15.440Z,24.42
2022-12-18T11:45:54.141Z,24.13
2022-12-18T11:47:31.227Z,25.85
2022-12-18T11:49:10.491Z,25.15
2022-12-18T11:50:50.490Z,41.63
2022-12-18T11:52:25.921Z,26.70
2022-12-18T11:53:59.976Z,26.08
2022-12-18T11:55:41.766Z,32.42
2022-12-18T11:57:27.867Z,27.98
2022-12-18T11:59:11.135Z,28.92
2022-12-18T12:00:56.026Z,25.85
2022-12-18T12:03:00.025Z,27.25
2022-12-18T12:04:44.064Z,25.92
2022-12-18T12:06:26.826Z,27.23
2022-12-18T12:08:07.817Z,27.08
2022-12-18T12:09:50.069Z,28.00
2022-12-18T12:11:31.791Z,26.98
2022-12-18T12:13:18.488Z,25.73
2022-12-18T12:15:01.532Z,26.02
2022-12-18T12:16:42.473Z,26.48
2022-12-18T12:18:26.755Z,27.58
2022-12-18T12:20:07.150Z,27.75
2022-12-18T12:21:43.549Z,27.42
2022-12-18T12:23:27.501Z,27.42
2022-12-18T12:25:13.028Z,27.63
2022-12-18T12:26:54.424Z,27.42
2022-12-18T12:28:49.631Z,27.85
2022-12-18T12:30:26.308Z,26.60
2022-12-18T12:32:09.152Z,26.42
2022-12-18T12:33:49.076Z,27.90
2022-12-18T12:35:33.829Z,26.45
2022-12-18T12:37:20.458Z,27.15
2022-12-18T12:38:57.932Z,26.40
2022-12-18T12:40:58.586Z,26.70
2022-12-18T12:42:52.863Z,26.63
2022-12-18T12:44:34.356Z,26.98
2022-12-18T12:46:09.213Z,26.52
2022-12-18T12:47:46.220Z,27.45
2022-12-18T12:49:23.370Z,28.67
2022-12-18T12:50:58.120Z,28.85
2022-12-18T12:52:36.752Z,26.88
2022-12-18T12:54:21.730Z,26.65
2022-12-18T12:55:57.071Z,28.20
2022-12-18T12:57:36.341Z,27.77
2022-12-18T12:59:20.462Z,27.77
2022-12-18T13:01:00.426Z,26.90
2022-12-18T13:02:39.320Z,27.00
2022-12-18T13:04:23.913Z,26.35
2022-12-18T13:06:01.795Z,27.25
2022-12-18T13:07:40.785Z,28.35
2022-12-18T13:09:13.582Z,27.20
2022-12-18T13:10:46.615Z,27.58
2022-12-18T13:12:39.160Z,27.40
2022-12-18T13:14:23.003Z,26.92
2022-12-18T13:16:07.144Z,26.15
2022-12-18T13:17:40.095Z,26.33
2022-12-18T13:19:27.906Z,25.95
2022-12-18T13:21:22.789Z,27.23
2022-12-18T13:22:56.247Z,26.85
2022-12-18T13:24:33.241Z,27.52
2022-12-18T13:26:35.067Z,26.92
2022-12-18T13:28:12.620Z,26.55
2022-12-18T13:32:02.025Z,27.00
2022-12-18T13:34:09.405Z,26.92
2022-12-18T13:35:42.122Z,28.48
2022-12-18T13:37:43.858Z,28.23
2022-12-18T13:39:35.217Z,28.55
2022-12-18T13:41:25.328Z,28.50
2022-12-18T13:43:15.494Z,28.08
2022-12-18T13:44:49.933Z,28.30
2022-12-18T13:46:25.340Z,29.80
2022-12-18T13:47:58.164Z,28.38
2022-12-18T13:49:39.099Z,29.75
2022-12-18T13:51:18.603Z,27.80
2022-12-18T13:52:53.044Z,29.95
2022-12-18T13:54:32.165Z,28.75
2022-12-18T13:56:06.893Z,29.15
2022-12-18T13:57:41.671Z,30.77
2022-12-18T13:59:24.591Z,31.55
2022-12-18T14:01:00.158Z,28.70
2022-12-18T14:02:35.614Z,30.25
2022-12-18T14:04:13.163Z,29.70
2022-12-18T14:05:47.450Z,27.77
2022-12-18T14:07:23.870Z,30.55
2022-12-18T14:09:00.826Z,30.15
2022-12-18T14:10:48.491Z,29.50
2022-12-18T14:12:43.492Z,28.23
2022-12-18T14:14:18.143Z,29.73
2022-12-18T14:15:52.027Z,29.25
2022-12-18T14:17:26.175Z,28.77
2022-12-18T14:19:02.258Z,27.83
2022-12-18T14:20:52.913Z,29.25
2022-12-18T14:22:30.400Z,28.23
2022-12-18T14:24:08.559Z,29.00
2022-12-18T14:25:47.885Z,29.30
2022-12-18T14:27:24.592Z,27.95
2022-12-18T14:28:57.730Z,28.48
2022-12-18T14:30:32.953Z,29.08
2022-12-18T14:32:18.654Z,28.38
2022-12-18T14:33:53.882Z,28.85
2022-12-18T14:35:26.629Z,27.77
2022-12-18T14:37:00.454Z,28.98
2022-12-18T14:38:35.169Z,28.30
2022-12-18T14:40:14.801Z,27.70
2022-12-18T14:41:47.572Z,29.40
2022-12-18T14:43:20.499Z,29.10
2022-12-18T14:45:13.474Z,29.85
2022-12-18T14:46:48.183Z,28.58
2022-12-18T14:48:24.057Z,28.67
2022-12-18T14:49:58.447Z,30.17
2022-12-18T14:51:33.448Z,28.50
2022-12-18T14:53:19.380Z,28.42
2022-12-18T14:54:52.245Z,28.40
2022-12-18T14:56:27.103Z,28.92
2022-12-18T14:58:00.121Z,28.75
2022-12-18T14:59:33.635Z,28.33
2022-12-18T15:01:06.861Z,27.83
2022-12-18T15:02:39.826Z,28.23
2022-12-18T15:04:29.015Z,28.67
2022-12-18T15:06:18.802Z,28.15
2022-12-18T15:07:53.576Z,27.60
2022-12-18T15:09:27.387Z,28.58
2022-12-18T15:11:00.191Z,28.55
2022-12-18T15:12:38.171Z,27.08
2022-12-18T15:14:33.850Z,29.25
2022-12-18T15:16:14.617Z,27.27
2022-12-18T15:17:47.388Z,28.20
2022-12-18T15:19:21.961Z,30.83
2022-12-18T15:20:56.137Z,33.78
2022-12-18T15:22:32.703Z,29.30
2022-12-18T15:24:06.106Z,29.25
2022-12-18T15:25:39.456Z,28.80
2022-12-18T15:27:23.446Z,29.25
2022-12-18T15:28:59.427Z,28.15
2022-12-18T15:30:32.370Z,28.88
2022-12-18T15:32:07.099Z,28.02
2022-12-18T15:33:42.223Z,28.60
2022-12-18T15:35:22.964Z,28.73
2022-12-18T15:36:55.754Z,29.27
2022-12-18T15:38:29.833Z,32.40
2022-12-18T15:40:03.127Z,28.30
2022-12-18T15:41:37.738Z,28.85
2022-12-18T15:43:28.711Z,26.73
2022-12-18T15:45:01.428Z,27.63
2022-12-18T15:46:34.277Z,26.48
2022-12-18T15:48:19.823Z,26.98
2022-12-18T15:49:52.547Z,27.65
2022-12-18T15:51:28.841Z,28.95
2022-12-18T15:53:01.594Z,29.88
2022-12-18T15:54:53.514Z,27.98
2022-12-18T15:56:43.797Z,28.95
2022-12-18T15:58:17.037Z,27.25
2022-12-18T15:59:49.759Z,26.90
2022-12-18T16:01:24.388Z,27.35
2022-12-18T16:02:57.381Z,24.48
2022-12-18T16:04:30.295Z,26.52
2022-12-18T16:06:03.102Z,27.15
2022-12-18T16:07:36.963Z,27.00
2022-12-18T16:09:10.223Z,27.95
2022-12-18T16:10:44.331Z,27.55
2022-12-18T16:12:19.597Z,26.05
2022-12-18T16:13:52.340Z,26.90
2022-12-18T16:15:25.225Z,26.30
2022-12-18T16:16:59.462Z,26.25
2022-12-18T16:18:32.262Z,26.40
2022-12-18T16:20:05.601Z,27.05
2022-12-18T16:21:38.319Z,27.30
2022-12-18T16:23:11.025Z,26.25
2022-12-18T16:24:44.372Z,27.70
2022-12-18T16:26:18.458Z,26.30
2022-12-18T16:27:51.801Z,26.98
2022-12-18T16:29:28.347Z,26.02
2022-12-18T16:31:01.525Z,28.48
2022-12-18T16:32:34.243Z,29.30
2022-12-18T16:34:22.362Z,28.05
2022-12-18T16:35:56.186Z,26.85
2022-12-18T16:37:28.916Z,27.20
2022-12-18T16:39:08.809Z,27.73
2022-12-18T16:41:02.719Z,27.40
2022-12-18T16:42:37.916Z,26.13
2022-12-18T16:44:11.008Z,26.52
2022-12-18T16:45:43.749Z,26.67
2022-12-18T16:47:16.758Z,26.40
2022-12-18T16:48:49.531Z,26.98
2022-12-18T16:50:22.244Z,26.80
2022-12-18T16:51:55.036Z,27.25
2022-12-18T16:53:27.750Z,25.10
2022-12-18T16:55:01.238Z,27.98
2022-12-18T16:56:33.989Z,26.42
2022-12-18T16:58:08.038Z,27.17
2022-12-18T16:59:40.772Z,28.38
2022-12-18T17:01:13.588Z,31.15
2022-12-18T17:02:46.783Z,28.55
2022-12-18T17:04:19.978Z,29.75
2022-12-18T17:05:53.333Z,31.33
2022-12-18T17:07:28.007Z,29.80
2022-12-18T17:09:02.823Z,29.17
2022-12-18T17:10:37.844Z,28.73
2022-12-18T17:12:10.771Z,29.98
2022-12-18T17:13:44.863Z,29.42
2022-12-18T17:15:17.716Z,29.38
2022-12-18T17:17:19.328Z,28.00
2022-12-18T17:18:45.634Z,27.85
2022-12-18T17:20:18.352Z,27.80
2022-12-18T17:21:53.595Z,28.42
2022-12-18T17:23:26.310Z,28.17
2022-12-18T17:24:59.037Z,27.67
2022-12-18T17:26:31.874Z,26.45
2022-12-18T17:28:04.853Z,28.02
2022-12-18T17:29:46.843Z,27.08
2022-12-18T17:31:22.636Z,27.90
2022-12-18T17:32:55.350Z,27.35
2022-12-18T17:34:28.335Z,27.30
2022-12-18T17:36:01.662Z,28.73
2022-12-18T17:37:34.384Z,28.23
2022-12-18T17:39:08.302Z,28.30
2022-12-18T17:40:46.115Z,30.05
2022-12-18T17:42:19.235Z,28.33
2022-12-18T17:43:53.159Z,27.88
2022-12-18T17:45:27.220Z,29.02
2022-12-18T17:47:00.039Z,27.35
2022-12-18T17:48:32.852Z,27.75
2022-12-18T17:50:06.015Z,27.38
2022-12-18T17:51:38.871Z,27.27
2022-12-18T17:53:11.583Z,28.52
2022-12-18T17:54:44.311Z,29.05
2022-12-18T17:56:20.243Z,27.05
2022-12-18T17:57:52.990Z,26.67
2022-12-18T17:59:25.705Z,29.80
2022-12-18T18:00:59.946Z,28.58
2022-12-18T18:02:33.238Z,28.05
2022-12-18T18:04:07.283Z,26.63
2022-12-18T18:05:40.698Z,27.48
2022-12-18T18:07:13.410Z,28.80
2022-12-18T18:08:46.182Z,27.70
2022-12-18T18:10:19.047Z,26.30
2022-12-18T18:12:09.411Z,26.50
2022-12-18T18:13:59.853Z,39.80
2022-12-18T18:15:32.579Z,39.42
2022-12-18T18:17:06.971Z,31.80
2022-12-18T18:18:40.284Z,32.97
2022-12-18T18:20:20.706Z,34.40
2022-12-18T18:21:55.170Z,30.00
2022-12-18T18:23:31.037Z,30.02
2022-12-18T18:25:04.417Z,29.27
2022-12-18T18:26:38.563Z,31.13
2022-12-18T18:28:11.280Z,28.27
2022-12-18T18:29:43.987Z,26.13
2022-12-18T18:31:16.783Z,27.60
2022-12-18T18:32:51.063Z,28.13
2022-12-18T18:34:27.996Z,27.55
2022-12-18T18:36:00.976Z,26.17
2022-12-18T18:37:34.003Z,27.90
2022-12-18T18:39:06.734Z,27.67
2022-12-18T18:40:41.719Z,26.52
2022-12-18T18:42:14.469Z,28.00
2022-12-18T18:43:47.280Z,28.42
2022-12-18T18:45:19.983Z,27.67
2022-12-18T18:46:54.836Z,28.02
2022-12-18T18:48:31.538Z,29.08
2022-12-18T18:50:06.608Z,28.10
2022-12-18T18:51:39.344Z,29.08
2022-12-18T18:53:12.046Z,28.73
2022-12-18T18:55:10.820Z,29.08
2022-12-18T18:58:30.727Z,27.95
2022-12-18T19:00:04.246Z,28.90
2022-12-18T19:01:37.214Z,27.67
2022-12-18T19:03:10.194Z,28.02
2022-12-18T19:04:46.617Z,30.17
2022-12-18T19:06:23.294Z,28.52
2022-12-18T19:07:56.716Z,28.45
2022-12-18T19:09:29.883Z,28.30
2022-12-18T19:11:04.097Z,28.40
2022-12-18T19:12:54.370Z,29.85
2022-12-18T19:14:26.189Z,29.02
2022-12-18T19:16:05.322Z,28.35
2022-12-18T19:17:38.345Z,29.73
2022-12-18T19:19:13.114Z,27.88
2022-12-18T19:20:55.734Z,29.70
2022-12-18T19:22:28.577Z,29.50
2022-12-18T19:24:02.359Z,28.50
2022-12-18T19:25:41.731Z,28.17
2022-12-18T19:27:15.247Z,28.08
2022-12-18T19:28:48.462Z,28.75
2022-12-18T19:30:21.203Z,28.25
2022-12-18T19:31:54.273Z,29.90
2022-12-18T19:33:43.096Z,28.77
2022-12-18T19:35:16.590Z,29.23
2022-12-18T19:36:56.552Z,27.90
2022-12-18T19:38:32.085Z,29.15
2022-12-18T19:40:12.027Z,29.08
2022-12-18T19:41:45.880Z,29.65
2022-12-18T19:43:18.915Z,29.38
2022-12-18T19:44:51.609Z,29.70
2022-12-18T19:46:24.853Z,29.33
2022-12-18T19:48:03.959Z,27.60
2022-12-18T19:49:38.537Z,29.25
2022-12-18T19:51:14.838Z,28.58
2022-12-18T19:52:48.878Z,29.05
2022-12-18T19:54:21.673Z,31.55
2022-12-18T19:55:54.384Z,30.27
2022-12-18T19:57:27.101Z,31.35
2022-12-18T19:59:00.389Z,35.85
2022-12-18T20:00:33.110Z,34.20
2022-12-18T20:02:06.067Z,35.50
2022-12-18T20:03:39.090Z,34.55
2022-12-18T20:05:14.043Z,39.55
2022-12-18T20:06:48.554Z,43.33
2022-12-18T20:08:22.648Z,33.60
2022-12-18T20:10:01.402Z,37.92
2022-12-18T20:11:41.206Z,36.55
2022-12-18T20:13:14.467Z,43.33
2022-12-18T20:14:47.718Z,48.35
2022-12-18T20:16:21.072Z,55.35
2022-12-18T20:17:54.007Z,41.03
2022-12-18T20:19:27.832Z,47.42
2022-12-18T20:21:00.767Z,56.20
2022-12-18T20:22:36.278Z,37.67
2022-12-18T20:24:11.032Z,40.05
2022-12-18T20:25:43.769Z,44.40
2022-12-18T20:27:19.495Z,34.22
2022-12-18T20:28:52.767Z,50.40
2022-12-18T20:30:25.506Z,35.28
2022-12-18T20:31:58.384Z,46.50
2022-12-18T20:33:31.639Z,36.30
2022-12-18T20:35:05.343Z,37.38
2022-12-18T20:36:39.832Z,45.85
2022-12-18T20:38:13.704Z,40.25
2022-12-18T20:39:48.548Z,39.88
2022-12-18T20:41:23.031Z,32.50
2022-12-18T20:42:55.774Z,38.50
2022-12-18T20:44:28.596Z,42.13